Time;durP1;ratioP1;P1;durP2;ratioP2;P2;SDS_P1;SDS_P2;PMS_P1;PMS_P2;Temp;Humidity;BMP_temperature;BMP_pressure;BME280_temperature;BME280_humidity;BME280_pressure;Samples;Min_cycle;Max_cycle;Signal;HPM_P1;HPM_P2
2022/04/27 00:00:47;;;;;;;;;59.80;50.00;;;;;;;;5225988;28;8882;-71
2022/04/27 00:03:18;;;;;;;;;56.60;48.20;;;;;;;;5225446;28;8790;-71
2022/04/27 00:05:49;;;;;;;;;57.25;47.25;;;;;;;;5224934;28;8817;-70
2022/04/27 00:08:19;;;;;;;;;61.00;50.75;;;;;;;;5225044;28;11537;-70
2022/04/27 00:11:09;;;;;;;;;59.40;50.00;;;;;;;;5225534;28;8781;-69
2022/04/27 00:13:40;;;;;;;;;57.00;47.60;;;;;;;;5226782;28;8800;-70
2022/04/27 00:16:11;;;;;;;;;59.80;50.00;;;;;;;;5209241;28;8782;-70
2022/04/27 00:18:42;;;;;;;;;52.75;45.00;;;;;;;;5225641;28;8845;-70
2022/04/27 00:21:13;;;;;;;;;52.60;44.60;;;;;;;;5225361;28;9183;-70
2022/04/27 00:23:45;;;;;;;;;55.80;47.60;;;;;;;;5224584;28;8816;-70
2022/04/27 00:26:16;;;;;;;;;49.80;42.20;;;;;;;;5225180;28;8856;-70
2022/04/27 00:28:46;;;;;;;;;60.50;49.00;;;;;;;;5224793;28;8785;-70
2022/04/27 00:31:18;;;;;;;;;55.20;47.60;;;;;;;;5224967;28;8809;-70
2022/04/27 00:33:49;;;;;;;;;60.80;49.40;;;;;;;;5224857;28;9616;-70
2022/04/27 00:36:20;;;;;;;;;50.00;42.80;;;;;;;;5208369;28;8793;-70
2022/04/27 00:38:51;;;;;;;;;50.80;43.20;;;;;;;;5225387;28;8825;-70
2022/04/27 00:41:22;;;;;;;;;46.50;40.50;;;;;;;;5226663;28;8785;-70
2022/04/27 00:43:53;;;;;;;;;39.00;35.40;;;;;;;;5224681;28;8825;-70
2022/04/27 00:46:24;;;;;;;;;37.75;35.25;;;;;;;;5241467;28;8786;-70
2022/04/27 00:48:54;;;;;;;;;28.00;27.00;;;;;;;;5225793;28;11512;-71
2022/04/27 00:51:26;;;;;;;;;28.20;27.80;;;;;;;;5207791;28;9885;-71
2022/04/27 00:54:16;;;;;;;;;19.60;19.20;;;;;;;;5226068;28;8762;-71
2022/04/27 00:56:47;;;;;;;;;20.20;20.20;;;;;;;;5224152;28;8817;-72
2022/04/27 00:59:18;;;;;;;;;22.80;22.20;;;;;;;;5224517;28;8789;-71
2022/04/27 01:01:49;;;;;;;;;18.20;18.20;;;;;;;;5225664;28;8863;-69
2022/04/27 01:04:20;;;;;;;;;41.60;38.20;;;;;;;;5225541;28;9500;-69
2022/04/27 01:06:51;;;;;;;;;33.00;31.50;;;;;;;;5225775;28;8912;-69
2022/04/27 01:09:24;;;;;;;;;34.20;32.80;;;;;;;;5225701;28;11660;-70
2022/04/27 01:12:00;;;;;;;;;43.80;39.20;;;;;;;;5224241;28;8782;-70
2022/04/27 01:14:41;;;;;;;;;36.00;34.60;;;;;;;;5208010;28;8928;-69
2022/04/27 01:17:12;;;;;;;;;43.00;37.20;;;;;;;;5224467;28;8891;-70
2022/04/27 01:19:43;;;;;;;;;23.00;22.00;;;;;;;;5223811;28;8825;-70
2022/04/27 01:22:14;;;;;;;;;24.00;23.40;;;;;;;;5207360;28;11552;-70
2022/04/27 01:24:50;;;;;;;;;30.40;29.40;;;;;;;;5207483;28;8875;-71
2022/04/27 01:27:21;;;;;;;;;47.40;40.80;;;;;;;;5203349;28;8796;-71
2022/04/27 01:29:52;;;;;;;;;43.00;38.00;;;;;;;;5191030;28;8820;-69
2022/04/27 01:32:23;;;;;;;;;29.20;28.40;;;;;;;;5243724;28;8882;-73
2022/04/27 01:34:54;;;;;;;;;44.00;40.00;;;;;;;;5211492;28;8804;-70
2022/04/27 01:40:15;;;;;;;;;57.60;47.00;;;;;;;;5210373;28;8792;-71
2022/04/27 01:42:46;;;;;;;;;24.60;24.60;;;;;;;;5221050;28;8940;-71
2022/04/27 01:45:17;;;;;;;;;26.75;25.50;;;;;;;;5232206;28;8905;-71
2022/04/27 01:47:48;;;;;;;;;23.00;23.00;;;;;;;;5230831;28;11058;-71
2022/04/27 01:50:19;;;;;;;;;25.80;25.00;;;;;;;;5214137;28;8798;-71
2022/04/27 01:55:40;;;;;;;;;14.80;14.60;;;;;;;;5231464;28;8866;-67
2022/04/27 01:58:12;;;;;;;;;13.20;13.20;;;;;;;;5226320;28;8818;-68
2022/04/27 02:00:46;;;;;;;;;20.20;20.20;;;;;;;;5230063;28;8885;-69
2022/04/27 02:03:18;;;;;;;;;10.60;10.60;;;;;;;;5213754;28;8998;-68
2022/04/27 02:05:50;;;;;;;;;14.20;14.20;;;;;;;;5230819;28;8797;-68
2022/04/27 02:08:22;;;;;;;;;17.00;17.00;;;;;;;;5230600;28;8782;-71
2022/04/27 02:10:54;;;;;;;;;15.60;15.60;;;;;;;;5230452;28;8846;-67
2022/04/27 02:13:27;;;;;;;;;17.60;17.60;;;;;;;;5197758;28;8786;-70
2022/04/27 02:16:03;;;;;;;;;21.60;21.20;;;;;;;;5214246;28;8814;-69
2022/04/27 02:18:39;;;;;;;;;19.00;19.00;;;;;;;;5263773;28;8856;-69
2022/04/27 02:21:10;;;;;;;;;18.60;18.60;;;;;;;;5230809;28;9674;-69
2022/04/27 02:23:42;;;;;;;;;43.50;38.00;;;;;;;;5230342;28;8908;-70
2022/04/27 02:26:13;;;;;;;;;61.00;50.00;;;;;;;;5231015;28;8834;-68
2022/04/27 02:28:44;;;;;;;;;51.20;43.60;;;;;;;;5230406;28;8781;-70
2022/04/27 02:31:15;;;;;;;;;23.80;23.80;;;;;;;;5230192;28;8789;-70
2022/04/27 02:33:46;;;;;;;;;27.20;26.80;;;;;;;;5230131;28;8797;-71
2022/04/27 02:36:18;;;;;;;;;20.00;19.60;;;;;;;;5230367;28;8808;-70
2022/04/27 02:38:49;;;;;;;;;18.00;18.00;;;;;;;;5231815;28;8794;-69
2022/04/27 02:41:20;;;;;;;;;32.80;31.60;;;;;;;;5227842;28;8774;-70
2022/04/27 02:43:51;;;;;;;;;34.60;33.20;;;;;;;;5227315;28;8816;-70
2022/04/27 02:46:25;;;;;;;;;15.40;15.40;;;;;;;;5226583;28;8793;-71
2022/04/27 02:51:53;;;;;;;;;11.00;11.00;;;;;;;;5208188;28;8837;-68
2022/04/27 02:54:50;;;;;;;;;17.20;17.20;;;;;;;;5228366;28;8794;-70
2022/04/27 02:57:21;;;;;;;;;17.00;17.00;;;;;;;;5209745;28;9524;-71
2022/04/27 03:00:11;;;;;;;;;16.20;16.20;;;;;;;;5221976;28;8786;-71
2022/04/27 03:03:00;;;;;;;;;22.60;22.60;;;;;;;;5227492;28;8793;-71
2022/04/27 03:05:32;;;;;;;;;15.80;15.80;;;;;;;;5226187;28;8782;-71
2022/04/27 03:08:03;;;;;;;;;14.00;13.20;;;;;;;;5228038;28;8835;-71
2022/04/27 03:10:36;;;;;;;;;12.40;12.40;;;;;;;;5226619;28;8789;-71
2022/04/27 03:13:07;;;;;;;;;15.00;15.00;;;;;;;;5227852;28;8897;-70
2022/04/27 03:15:39;;;;;;;;;11.00;11.00;;;;;;;;5193680;28;8920;-70
2022/04/27 03:18:22;;;;;;;;;42.25;36.25;;;;;;;;5226711;28;8951;-67
2022/04/27 03:20:54;;;;;;;;;36.80;35.80;;;;;;;;5227727;28;10620;-67
2022/04/27 03:23:25;;;;;;;;;19.40;19.40;;;;;;;;5226539;28;8804;-69
2022/04/27 03:25:59;;;;;;;;;18.20;18.20;;;;;;;;5226047;28;9543;-68
2022/04/27 03:28:48;;;;;;;;;83.60;66.60;;;;;;;;5212453;28;8798;-69
2022/04/27 03:31:21;;;;;;;;;53.80;43.20;;;;;;;;5226297;28;9551;-69
2022/04/27 03:33:54;;;;;;;;;44.20;39.80;;;;;;;;5226646;28;8800;-69
2022/04/27 03:36:25;;;;;;;;;80.20;66.00;;;;;;;;5227968;28;9468;-69
2022/04/27 03:38:57;;;;;;;;;25.60;25.60;;;;;;;;5226433;28;8824;-69
2022/04/27 03:41:28;;;;;;;;;51.20;43.20;;;;;;;;5226942;28;8798;-68
2022/04/27 03:44:01;;;;;;;;;33.80;32.80;;;;;;;;5227540;28;8794;-68
2022/04/27 03:46:32;;;;;;;;;32.40;32.40;;;;;;;;5227455;28;8782;-68
2022/04/27 03:49:05;;;;;;;;;16.40;16.40;;;;;;;;5225599;28;8770;-68
2022/04/27 03:51:37;;;;;;;;;28.20;28.20;;;;;;;;5225682;28;9489;-68
2022/04/27 03:54:13;;;;;;;;;36.60;36.00;;;;;;;;5224727;28;8797;-68
2022/04/27 03:56:46;;;;;;;;;20.60;20.60;;;;;;;;5208175;28;8817;-69
2022/04/27 03:59:18;;;;;;;;;15.20;15.20;;;;;;;;5226134;28;8770;-68
2022/04/27 04:02:07;;;;;;;;;15.80;15.80;;;;;;;;5227091;28;8770;-67
2022/04/27 04:04:38;;;;;;;;;23.20;23.00;;;;;;;;5225143;28;8782;-68
2022/04/27 04:07:10;;;;;;;;;24.60;19.60;;;;;;;;5208998;28;8762;-69
2022/04/27 04:10:02;;;;;;;;;18.80;18.80;;;;;;;;5226454;28;8808;-69
2022/04/27 04:12:34;;;;;;;;;30.00;25.40;;;;;;;;5225160;28;8810;-69
2022/04/27 04:15:28;;;;;;;;;32.80;30.60;;;;;;;;5212358;28;8908;-69
2022/04/27 04:18:17;;;;;;;;;25.00;25.00;;;;;;;;5226609;28;8806;-69
2022/04/27 04:21:07;;;;;;;;;36.00;33.00;;;;;;;;5226442;28;8920;-69
2022/04/27 04:23:47;;;;;;;;;36.60;32.80;;;;;;;;5209706;28;8836;-69
2022/04/27 04:29:09;;;;;;;;;32.00;31.00;;;;;;;;5226446;28;8774;-68
2022/04/27 04:31:40;;;;;;;;;29.50;28.00;;;;;;;;5225106;28;8863;-68
2022/04/27 04:34:17;;;;;;;;;28.20;28.20;;;;;;;;5225322;28;11523;-67
2022/04/27 04:37:07;;;;;;;;;19.60;19.60;;;;;;;;5225312;28;8802;-68
2022/04/27 04:39:38;;;;;;;;;8.00;8.00;;;;;;;;5224273;28;8777;-68
2022/04/27 04:42:27;;;;;;;;;20.60;20.20;;;;;;;;5226153;28;8797;-68
2022/04/27 04:45:00;;;;;;;;;22.40;22.40;;;;;;;;5226425;28;8809;-68
2022/04/27 04:47:49;;;;;;;;;36.40;33.20;;;;;;;;5225993;28;8782;-68
2022/04/27 04:50:52;;;;;;;;;63.80;53.60;;;;;;;;5192186;28;8782;-68
2022/04/27 04:53:37;;;;;;;;;74.20;59.00;;;;;;;;5224539;28;8797;-68
2022/04/27 04:56:30;;;;;;;;;62.40;52.80;;;;;;;;5206338;28;9690;-67
2022/04/27 04:59:28;;;;;;;;;19.80;18.40;;;;;;;;5225647;28;8791;-67
2022/04/27 05:02:37;;;;;;;;;12.60;12.60;;;;;;;;5212240;28;9502;-66
2022/04/27 05:05:27;;;;;;;;;23.00;22.20;;;;;;;;5196240;28;8795;-67
2022/04/27 05:08:10;;;;;;;;;22.80;22.60;;;;;;;;5180581;28;9585;-67
2022/04/27 05:10:53;;;;;;;;;23.60;22.20;;;;;;;;5201924;28;8808;-67
2022/04/27 05:13:44;;;;;;;;;26.00;25.20;;;;;;;;5204945;28;8801;-68
2022/04/27 05:16:44;;;;;;;;;19.00;19.00;;;;;;;;5186223;28;8895;-67
2022/04/27 05:19:25;;;;;;;;;10.00;10.00;;;;;;;;5205851;28;8821;-67
2022/04/27 05:22:22;;;;;;;;;15.00;15.00;;;;;;;;5221835;28;8813;-67
2022/04/27 05:25:11;;;;;;;;;29.00;29.00;;;;;;;;5222597;28;8830;-67
2022/04/27 05:27:58;;;;;;;;;18.80;18.00;;;;;;;;5196009;28;8815;-67
2022/04/27 05:34:06;;;;;;;;;17.20;17.20;;;;;;;;5243157;28;8946;-69
2022/04/27 05:36:55;;;;;;;;;13.00;13.00;;;;;;;;5244362;28;8799;-67
2022/04/27 05:39:52;;;;;;;;;21.60;21.60;;;;;;;;5218516;28;8811;-67
2022/04/27 05:42:40;;;;;;;;;203.75;185.75;;;;;;;;5234364;28;9515;-68
2022/04/27 05:45:24;;;;;;;;;7.60;7.60;;;;;;;;5202074;28;11619;-66
2022/04/27 05:48:07;;;;;;;;;25.60;23.60;;;;;;;;5203053;28;8955;-67
2022/04/27 05:50:45;;;;;;;;;13.00;13.00;;;;;;;;5205218;28;8829;-68
2022/04/27 05:53:35;;;;;;;;;18.00;18.00;;;;;;;;5223415;28;8797;-67
2022/04/27 05:56:26;;;;;;;;;32.60;31.00;;;;;;;;5199527;28;8803;-67
2022/04/27 05:59:10;;;;;;;;;21.25;20.75;;;;;;;;5219582;28;8962;-67
2022/04/27 06:02:01;;;;;;;;;9.50;9.50;;;;;;;;5224790;28;9017;-67
2022/04/27 06:04:33;;;;;;;;;18.50;18.50;;;;;;;;5191872;28;8795;-67
2022/04/27 06:07:07;;;;;;;;;20.80;20.80;;;;;;;;5224147;28;8886;-67
2022/04/27 06:09:38;;;;;;;;;16.25;16.25;;;;;;;;5223084;28;8835;-67
2022/04/27 06:12:13;;;;;;;;;13.60;13.60;;;;;;;;5223779;28;8804;-66
2022/04/27 06:14:47;;;;;;;;;9.75;9.75;;;;;;;;5224196;28;8786;-67
2022/04/27 06:17:31;;;;;;;;;12.50;12.50;;;;;;;;5230584;28;8829;-66
2022/04/27 06:20:05;;;;;;;;;34.20;33.20;;;;;;;;5249514;28;8775;-68
2022/04/27 06:22:37;;;;;;;;;17.80;17.40;;;;;;;;5231883;28;9605;-66
2022/04/27 06:25:08;;;;;;;;;17.60;17.60;;;;;;;;5249462;28;8819;-65
2022/04/27 06:27:55;;;;;;;;;22.80;21.40;;;;;;;;5248328;28;8790;-66
2022/04/27 06:30:27;;;;;;;;;12.80;12.80;;;;;;;;5237545;28;8806;-66
2022/04/27 06:33:17;;;;;;;;;10.00;10.00;;;;;;;;5228725;28;8879;-65
2022/04/27 06:36:07;;;;;;;;;14.00;11.50;;;;;;;;5228627;28;8770;-66
2022/04/27 06:38:38;;;;;;;;;17.80;17.00;;;;;;;;5228499;28;8840;-66
2022/04/27 06:41:27;;;;;;;;;26.40;26.40;;;;;;;;5228565;28;8815;-66
2022/04/27 06:44:17;;;;;;;;;13.00;13.00;;;;;;;;5228261;28;8883;-66
2022/04/27 06:47:14;;;;;;;;;27.60;27.60;;;;;;;;5211883;28;8844;-66
2022/04/27 06:50:04;;;;;;;;;11.00;11.00;;;;;;;;5227994;28;8806;-66
2022/04/27 06:52:55;;;;;;;;;19.80;19.80;;;;;;;;5227213;28;8790;-66
2022/04/27 06:55:45;;;;;;;;;9.00;9.00;;;;;;;;5228407;28;8847;-66
2022/04/27 06:58:18;;;;;;;;;9.00;9.00;;;;;;;;5228010;28;8940;-66
2022/04/27 07:01:02;;;;;;;;;13.20;12.60;;;;;;;;5228246;28;8871;-67
2022/04/27 07:03:35;;;;;;;;;8.50;8.50;;;;;;;;5210631;28;8896;-66
2022/04/27 07:06:08;;;;;;;;;40.20;37.00;;;;;;;;5225782;28;8790;-67
2022/04/27 07:08:39;;;;;;;;;14.50;14.00;;;;;;;;5209853;28;8927;-65
2022/04/27 07:11:10;;;;;;;;;9.00;9.00;;;;;;;;5228409;28;8758;-65
2022/04/27 07:13:41;;;;;;;;;9.00;9.00;;;;;;;;5227769;28;8956;-67
2022/04/27 07:16:12;;;;;;;;;27.25;26.50;;;;;;;;5227934;28;8908;-67
2022/04/27 07:18:42;;;;;;;;;42.75;39.00;;;;;;;;5227634;28;8813;-67
2022/04/27 07:21:13;;;;;;;;;11.75;11.75;;;;;;;;5227634;28;10187;-67
2022/04/27 07:23:45;;;;;;;;;4.00;4.00;;;;;;;;5227545;28;8823;-67
2022/04/27 07:26:16;;;;;;;;;9.25;9.25;;;;;;;;5227837;28;8781;-67
2022/04/27 07:28:47;;;;;;;;;3.67;3.67;;;;;;;;5227156;28;8883;-67
2022/04/27 07:31:36;;;;;;;;;3.25;3.00;;;;;;;;5227596;28;9444;-67
2022/04/27 07:34:07;;;;;;;;;7.50;7.00;;;;;;;;5227468;28;8920;-67
2022/04/27 07:36:38;;;;;;;;;2.00;2.00;;;;;;;;5227569;28;8798;-67
2022/04/27 07:39:10;;;;;;;;;4.25;4.25;;;;;;;;5227380;28;8806;-67
2022/04/27 07:41:41;;;;;;;;;3.00;3.00;;;;;;;;5227760;28;8758;-67
2022/04/27 07:44:12;;;;;;;;;3.00;3.00;;;;;;;;5227406;28;8810;-67
2022/04/27 07:46:47;;;;;;;;;4.50;4.50;;;;;;;;5227218;28;11412;-67
2022/04/27 07:49:22;;;;;;;;;4.25;4.25;;;;;;;;5227469;28;8860;-67
2022/04/27 07:51:54;;;;;;;;;4.75;4.75;;;;;;;;5227243;28;8784;-67
2022/04/27 07:54:25;;;;;;;;;5.75;5.75;;;;;;;;5227934;28;8782;-67
2022/04/27 07:56:56;;;;;;;;;1.00;1.00;;;;;;;;5227118;28;8785;-67
2022/04/27 07:59:28;;;;;;;;;4.33;4.33;;;;;;;;5227219;28;11443;-67
2022/04/27 08:01:59;;;;;;;;;6.00;6.00;;;;;;;;5225866;28;8778;-68
2022/04/27 08:04:30;;;;;;;;;1.67;1.67;;;;;;;;5226859;28;8782;-67
2022/04/27 08:07:01;;;;;;;;;1.00;1.00;;;;;;;;5226514;28;9536;-67
2022/04/27 08:09:50;;;;;;;;;10.75;10.75;;;;;;;;5226990;28;11750;-67
2022/04/27 08:12:21;;;;;;;;;24.00;23.00;;;;;;;;5225674;28;8805;-67
2022/04/27 08:14:53;;;;;;;;;25.75;25.75;;;;;;;;5226752;28;8794;-67
2022/04/27 08:17:24;;;;;;;;;12.25;12.25;;;;;;;;5226901;28;8899;-67
2022/04/27 08:21:13;;;;;;;;;1.00;1.00;;;;;;;;5226926;28;9500;-66
2022/04/27 08:22:45;;;;;;;;;4.00;4.00;;;;;;;;5226692;28;11554;-66
2022/04/27 08:25:16;;;;;;;;;7.33;7.33;;;;;;;;5226371;28;8802;-67
2022/04/27 08:27:47;;;;;;;;;0.67;0.67;;;;;;;;5226825;28;9101;-67
2022/04/27 08:30:18;;;;;;;;;2.00;2.00;;;;;;;;5226858;28;8805;-68
2022/04/27 08:32:49;;;;;;;;;1.00;1.00;;;;;;;;5226423;28;8805;-67
2022/04/27 08:35:38;;;;;;;;;6.00;6.00;;;;;;;;5226470;28;8782;-67
2022/04/27 08:38:12;;;;;;;;;4.00;4.00;;;;;;;;5226245;28;8842;-67
2022/04/27 08:40:44;;;;;;;;;2.50;2.50;;;;;;;;5226240;28;8933;-67
2022/04/27 08:43:15;;;;;;;;;1.75;1.75;;;;;;;;5226359;28;8814;-67
2022/04/27 08:45:46;;;;;;;;;1.50;1.50;;;;;;;;5226236;28;8786;-69
2022/04/27 08:48:18;;;;;;;;;2.00;2.00;;;;;;;;5226313;28;8770;-67
2022/04/27 08:50:49;;;;;;;;;8.50;8.50;;;;;;;;5225966;28;10969;-67
2022/04/27 08:53:20;;;;;;;;;7.25;7.25;;;;;;;;5226000;28;8770;-67
2022/04/27 08:55:53;;;;;;;;;23.60;23.60;;;;;;;;5225064;28;8770;-67
2022/04/27 08:58:24;;;;;;;;;2.25;2.25;;;;;;;;5227754;28;8841;-68
2022/04/27 09:00:56;;;;;;;;;6.25;6.25;;;;;;;;5230443;28;8770;-67
2022/04/27 09:03:30;;;;;;;;;2.00;2.00;;;;;;;;5232895;28;9523;-67
2022/04/27 09:06:05;;;;;;;;;3.50;3.50;;;;;;;;5232918;28;8770;-67
2022/04/27 09:08:55;;;;;;;;;3.00;3.00;;;;;;;;5233054;28;8798;-67
2022/04/27 09:11:27;;;;;;;;;1.00;1.00;;;;;;;;5225589;28;8786;-67
2022/04/27 09:14:00;;;;;;;;;1.00;1.00;;;;;;;;5226140;28;8783;-67
2022/04/27 09:22:59;;;;;;;;;4.25;4.25;;;;;;;;5220924;28;9655;-67
2022/04/27 09:25:34;;;;;;;;;6.50;6.50;;;;;;;;5221933;28;8844;-68
2022/04/27 09:28:25;;;;;;;;;2.00;2.00;;;;;;;;5225992;28;8774;-68
2022/04/27 09:30:56;;;;;;;;;2.00;2.00;;;;;;;;5226245;28;8778;-68
2022/04/27 09:33:56;;;;;;;;;4.00;4.00;;;;;;;;5225464;28;8777;-68
2022/04/27 09:36:27;;;;;;;;;3.75;3.75;;;;;;;;5225599;28;8801;-67
2022/04/27 09:38:58;;;;;;;;;6.50;6.50;;;;;;;;5224892;28;8810;-68
2022/04/27 09:41:42;;;;;;;;;36.25;34.75;;;;;;;;5225573;28;8798;-67
2022/04/27 09:44:27;;;;;;;;;7.75;7.75;;;;;;;;5224334;28;8805;-67
2022/04/27 09:46:59;;;;;;;;;4.00;4.00;;;;;;;;5224903;28;8820;-67
2022/04/27 09:49:31;;;;;;;;;3.00;3.00;;;;;;;;5225405;28;8774;-67
2022/04/27 09:52:03;;;;;;;;;4.50;4.00;;;;;;;;5229736;28;8773;-67
2022/04/27 09:54:36;;;;;;;;;8.00;8.00;;;;;;;;5229513;28;8793;-67
2022/04/27 09:57:10;;;;;;;;;4.00;4.00;;;;;;;;5229487;28;8805;-67
2022/04/27 09:59:41;;;;;;;;;3.50;3.50;;;;;;;;5229441;28;9496;-67
2022/04/27 10:02:31;;;;;;;;;5.50;5.50;;;;;;;;5229087;28;8870;-67
2022/04/27 10:05:01;;;;;;;;;4.75;4.75;;;;;;;;5228852;28;8793;-67
2022/04/27 10:07:34;;;;;;;;;5.75;5.75;;;;;;;;5229112;28;8892;-67
2022/04/27 10:10:06;;;;;;;;;6.50;6.50;;;;;;;;5229627;28;8824;-68
2022/04/27 10:12:39;;;;;;;;;8.25;8.25;;;;;;;;5229002;28;8821;-67
2022/04/27 10:15:10;;;;;;;;;10.00;10.00;;;;;;;;5229056;28;8797;-68
2022/04/27 10:17:41;;;;;;;;;8.00;8.00;;;;;;;;5227820;28;9572;-68
2022/04/27 10:20:30;;;;;;;;;3.67;3.67;;;;;;;;5228023;28;8812;-67
2022/04/27 10:23:17;;;;;;;;;3.00;3.00;;;;;;;;5229223;28;8781;-67
2022/04/27 10:26:06;;;;;;;;;4.75;4.75;;;;;;;;5228990;28;8798;-67
2022/04/27 10:28:48;;;;;;;;;3.00;3.00;;;;;;;;5228707;28;8790;-68
2022/04/27 10:31:38;;;;;;;;;2.25;2.25;;;;;;;;5227730;28;8778;-68
2022/04/27 10:34:18;;;;;;;;;2.00;2.00;;;;;;;;5228321;28;8821;-68
2022/04/27 10:37:07;;;;;;;;;1.00;1.00;;;;;;;;5228871;28;8786;-68
2022/04/27 10:39:43;;;;;;;;;2.75;2.75;;;;;;;;5228833;28;8793;-68
2022/04/27 10:42:20;;;;;;;;;1.00;1.00;;;;;;;;5228587;28;8801;-68
2022/04/27 10:44:51;;;;;;;;;2.00;2.00;;;;;;;;5227407;28;8874;-68
2022/04/27 10:47:22;;;;;;;;;4.00;4.00;;;;;;;;5228496;28;8913;-68
2022/04/27 10:50:14;;;;;;;;;2.00;2.00;;;;;;;;5228963;28;9511;-68
2022/04/27 10:52:51;;;;;;;;;1.75;1.75;;;;;;;;5228681;28;8781;-67
2022/04/27 10:55:41;;;;;;;;;4.25;4.25;;;;;;;;5228431;28;8870;-68
2022/04/27 10:58:12;;;;;;;;;5.25;5.25;;;;;;;;5227102;28;8810;-67
2022/04/27 11:00:58;;;;;;;;;3.00;3.00;;;;;;;;5228178;28;8847;-67
2022/04/27 11:03:30;;;;;;;;;4.00;4.00;;;;;;;;5225949;28;8820;-67
2022/04/27 11:06:05;;;;;;;;;4.00;4.00;;;;;;;;5227999;28;8778;-67
2022/04/27 11:08:35;;;;;;;;;2.00;2.00;;;;;;;;5227972;28;8814;-67
2022/04/27 11:11:07;;;;;;;;;4.67;4.67;;;;;;;;5228078;28;8790;-67
2022/04/27 11:13:38;;;;;;;;;6.00;6.00;;;;;;;;5226228;28;11577;-67
2022/04/27 11:16:10;;;;;;;;;15.00;15.00;;;;;;;;5227991;28;9643;-67
2022/04/27 11:18:57;;;;;;;;;21.80;21.80;;;;;;;;5228083;28;8821;-68
2022/04/27 11:21:30;;;;;;;;;15.50;15.50;;;;;;;;5228197;28;8789;-67
2022/04/27 11:24:20;;;;;;;;;5.75;5.75;;;;;;;;5227579;28;8774;-67
2022/04/27 11:26:51;;;;;;;;;2.25;2.25;;;;;;;;5227362;28;8814;-67
2022/04/27 11:29:25;;;;;;;;;2.00;2.00;;;;;;;;5227239;28;8808;-67
2022/04/27 11:31:55;;;;;;;;;3.25;3.25;;;;;;;;5227585;28;8798;-67
2022/04/27 11:34:48;;;;;;;;;2.75;2.75;;;;;;;;5227138;28;8794;-68
2022/04/27 11:37:38;;;;;;;;;1.00;1.00;;;;;;;;5227719;28;8810;-67
2022/04/27 11:40:12;;;;;;;;;0.00;0.00;;;;;;;;5227844;28;8773;-67
2022/04/27 11:42:47;;;;;;;;;5.00;5.00;;;;;;;;5227109;28;8778;-68
2022/04/27 11:45:19;;;;;;;;;5.75;5.75;;;;;;;;5226827;28;8782;-68
2022/04/27 11:47:57;;;;;;;;;2.00;2.00;;;;;;;;5227481;28;8912;-68
2022/04/27 11:50:31;;;;;;;;;0.75;0.75;;;;;;;;5227533;28;8834;-68
2022/04/27 11:53:07;;;;;;;;;1.75;1.75;;;;;;;;5227048;28;8780;-68
2022/04/27 11:55:38;;;;;;;;;3.75;3.75;;;;;;;;5227221;28;8789;-68
2022/04/27 11:58:09;;;;;;;;;1.00;1.00;;;;;;;;5227145;28;8790;-68
2022/04/27 12:00:59;;;;;;;;;1.00;1.00;;;;;;;;5226780;28;8778;-68
2022/04/27 12:03:32;;;;;;;;;1.00;1.00;;;;;;;;5225919;28;8770;-67
2022/04/27 12:06:03;;;;;;;;;2.00;2.00;;;;;;;;5226938;28;8944;-68
2022/04/27 12:08:40;;;;;;;;;1.00;1.00;;;;;;;;5227216;28;8884;-67
2022/04/27 12:11:30;;;;;;;;;1.00;1.00;;;;;;;;5226555;28;9126;-67
2022/04/27 12:14:01;;;;;;;;;1.00;1.00;;;;;;;;5224695;28;8778;-67
2022/04/27 12:16:32;;;;;;;;;0.67;0.67;;;;;;;;5226846;28;8788;-67
2022/04/27 12:19:02;;;;;;;;;0.00;0.00;;;;;;;;5226390;28;11473;-67
2022/04/27 12:21:33;;;;;;;;;1.00;0.33;;;;;;;;5225531;28;10672;-67
2022/04/27 12:24:17;;;;;;;;;0.33;0.33;;;;;;;;5226863;28;8770;-68
2022/04/27 12:27:26;;;;;;;;;0.00;0.00;;;;;;;;5225603;28;9639;-68
2022/04/27 12:30:04;;;;;;;;;1.00;1.00;;;;;;;;5225658;28;8798;-68
2022/04/27 12:32:35;;;;;;;;;1.00;1.00;;;;;;;;5225472;28;8971;-68
2022/04/27 12:37:55;;;;;;;;;0.00;0.00;;;;;;;;5226667;28;11722;-67
2022/04/27 12:40:32;;;;;;;;;0.00;0.00;;;;;;;;5226487;28;8905;-67
2022/04/27 12:43:06;;;;;;;;;0.00;0.00;;;;;;;;5226339;28;8887;-67
2022/04/27 12:45:37;;;;;;;;;7.75;7.75;;;;;;;;5225732;28;8898;-68
2022/04/27 12:48:26;;;;;;;;;6.00;6.00;;;;;;;;5224843;28;8805;-68
2022/04/27 12:51:27;;;;;;;;;2.75;2.75;;;;;;;;5226057;28;10051;-68
2022/04/27 12:53:58;;;;;;;;;2.75;2.75;;;;;;;;5226135;28;8794;-67
2022/04/27 12:56:58;;;;;;;;;1.00;1.00;;;;;;;;5225297;28;9500;-66
2022/04/27 12:59:32;;;;;;;;;2.00;2.00;;;;;;;;5226381;28;8934;-69
2022/04/27 13:02:06;;;;;;;;;0.00;0.00;;;;;;;;5225855;28;8809;-68
2022/04/27 13:04:37;;;;;;;;;9.00;8.75;;;;;;;;5224586;28;8816;-67
2022/04/27 13:07:08;;;;;;;;;4.50;4.50;;;;;;;;5225888;28;8962;-68
2022/04/27 13:12:37;;;;;;;;;22.00;21.75;;;;;;;;5194154;28;8822;-67
2022/04/27 13:15:08;;;;;;;;;9.50;9.50;;;;;;;;5232598;28;9508;-67
2022/04/27 13:17:42;;;;;;;;;7.75;7.75;;;;;;;;5225456;28;8849;-68
2022/04/27 13:20:13;;;;;;;;;3.00;3.00;;;;;;;;5206816;28;8802;-68
2022/04/27 13:22:44;;;;;;;;;18.00;17.33;;;;;;;;5223972;28;8794;-68
2022/04/27 13:25:15;;;;;;;;;17.33;17.33;;;;;;;;5224882;28;8813;-67
2022/04/27 13:27:46;;;;;;;;;6.50;6.50;;;;;;;;5225060;28;11520;-67
2022/04/27 13:30:17;;;;;;;;;9.00;8.67;;;;;;;;5225042;28;8799;-66
2022/04/27 13:32:49;;;;;;;;;6.00;6.00;;;;;;;;5224049;28;11500;-66
2022/04/27 13:35:20;;;;;;;;;10.75;10.00;;;;;;;;5225299;28;8791;-67
2022/04/27 13:38:09;;;;;;;;;6.75;6.75;;;;;;;;5224568;28;8824;-67
2022/04/27 13:40:40;;;;;;;;;5.00;4.75;;;;;;;;5225227;28;8828;-66
2022/04/27 13:43:12;;;;;;;;;4.00;4.00;;;;;;;;5224705;28;8871;-67
2022/04/27 13:45:53;;;;;;;;;5.00;5.00;;;;;;;;5225814;28;8766;-67
2022/04/27 13:48:24;;;;;;;;;7.75;7.75;;;;;;;;5224878;28;8913;-66
2022/04/27 13:50:55;;;;;;;;;8.67;8.00;;;;;;;;5224280;28;8933;-66
2022/04/27 13:53:28;;;;;;;;;7.00;7.00;;;;;;;;5224140;28;10399;-66
2022/04/27 13:55:59;;;;;;;;;33.40;31.60;;;;;;;;5224867;28;8800;-66
2022/04/27 13:58:30;;;;;;;;;7.25;7.25;;;;;;;;5224274;28;8840;-67
2022/04/27 14:01:01;;;;;;;;;9.00;9.00;;;;;;;;5224892;28;8778;-67
2022/04/27 14:03:32;;;;;;;;;7.00;7.00;;;;;;;;5225334;28;8822;-67
2022/04/27 14:06:03;;;;;;;;;8.00;7.33;;;;;;;;5224858;28;8801;-66
2022/04/27 14:08:52;;;;;;;;;37.80;35.00;;;;;;;;5224754;28;8797;-67
2022/04/27 14:14:14;;;;;;;;;6.75;6.75;;;;;;;;5224920;28;11580;-67
2022/04/27 14:19:34;;;;;;;;;3.00;3.00;;;;;;;;5225103;28;8814;-67
2022/04/27 14:22:06;;;;;;;;;2.75;2.75;;;;;;;;5224112;28;8821;-66
2022/04/27 14:24:37;;;;;;;;;11.00;11.00;;;;;;;;5223008;28;8811;-67
2022/04/27 14:27:08;;;;;;;;;5.25;5.25;;;;;;;;5223817;28;8770;-66
2022/04/27 14:29:39;;;;;;;;;5.67;5.67;;;;;;;;5224520;28;8781;-67
2022/04/27 14:32:10;;;;;;;;;6.50;6.50;;;;;;;;5223714;28;12277;-67
2022/04/27 14:34:41;;;;;;;;;5.00;5.00;;;;;;;;5224771;28;8778;-67
2022/04/27 14:37:12;;;;;;;;;8.00;8.00;;;;;;;;5225448;28;8819;-67
2022/04/27 14:39:46;;;;;;;;;13.25;13.25;;;;;;;;5228153;28;11433;-67
2022/04/27 14:42:18;;;;;;;;;8.75;8.75;;;;;;;;5228028;28;8778;-67
2022/04/27 14:44:49;;;;;;;;;17.50;17.50;;;;;;;;5228845;28;9540;-67
2022/04/27 14:47:20;;;;;;;;;12.75;12.75;;;;;;;;5228057;28;8856;-67
2022/04/27 14:49:50;;;;;;;;;16.50;16.50;;;;;;;;5228126;28;8790;-67
2022/04/27 14:52:22;;;;;;;;;18.67;18.67;;;;;;;;5228329;28;8953;-67
2022/04/27 14:54:53;;;;;;;;;16.75;15.00;;;;;;;;5228130;28;8855;-67
2022/04/27 14:57:24;;;;;;;;;13.00;13.00;;;;;;;;5228710;28;9508;-67
2022/04/27 14:59:57;;;;;;;;;16.50;16.50;;;;;;;;5227898;28;11638;-66
2022/04/27 15:02:31;;;;;;;;;22.00;22.00;;;;;;;;5226689;28;8838;-66
2022/04/27 15:05:02;;;;;;;;;22.00;21.00;;;;;;;;5227524;28;8808;-71
2022/04/27 15:07:52;;;;;;;;;13.25;13.25;;;;;;;;5207652;28;8793;-66
2022/04/27 15:10:23;;;;;;;;;13.00;13.00;;;;;;;;5207701;28;8792;-66
2022/04/27 15:12:54;;;;;;;;;4.50;4.50;;;;;;;;5238734;28;11513;-66
2022/04/27 15:15:25;;;;;;;;;33.33;32.33;;;;;;;;5225142;28;8785;-66
2022/04/27 15:17:56;;;;;;;;;13.00;13.00;;;;;;;;5227547;28;8822;-67
2022/04/27 15:23:16;;;;;;;;;24.75;24.25;;;;;;;;5227463;28;12179;-66
2022/04/27 15:25:48;;;;;;;;;23.00;22.33;;;;;;;;5227236;28;8826;-68
2022/04/27 15:28:19;;;;;;;;;17.00;17.00;;;;;;;;5225928;28;9400;-67
2022/04/27 15:30:50;;;;;;;;;14.33;14.33;;;;;;;;5226579;28;8916;-67
2022/04/27 15:33:21;;;;;;;;;11.67;11.67;;;;;;;;5227840;28;8805;-67
2022/04/27 15:35:52;;;;;;;;;19.25;19.00;;;;;;;;5227255;28;9711;-67
2022/04/27 15:38:25;;;;;;;;;14.50;14.50;;;;;;;;5225741;28;9524;-68
2022/04/27 15:40:56;;;;;;;;;33.00;31.00;;;;;;;;5226963;28;8864;-68
2022/04/27 15:43:27;;;;;;;;;14.00;14.00;;;;;;;;5221465;28;8903;-68
2022/04/27 15:45:58;;;;;;;;;21.67;21.33;;;;;;;;5213855;28;11533;-68
2022/04/27 15:48:48;;;;;;;;;25.00;25.00;;;;;;;;5225530;28;8801;-68
2022/04/27 15:51:38;;;;;;;;;29.50;29.50;;;;;;;;5207016;28;8799;-68
2022/04/27 15:54:10;;;;;;;;;24.80;24.80;;;;;;;;5215361;28;8781;-68
2022/04/27 15:56:42;;;;;;;;;17.50;16.50;;;;;;;;5227305;28;8778;-68
2022/04/27 15:59:13;;;;;;;;;32.80;31.80;;;;;;;;5222238;28;8813;-67
2022/04/27 16:01:44;;;;;;;;;27.20;26.60;;;;;;;;5226956;28;8778;-68
2022/04/27 16:04:34;;;;;;;;;38.60;33.80;;;;;;;;5227140;28;8770;-67
2022/04/27 16:07:05;;;;;;;;;25.60;23.80;;;;;;;;5227300;28;8786;-67
2022/04/27 16:09:37;;;;;;;;;27.80;27.60;;;;;;;;5226446;28;8822;-66